Time;durP1;ratioP1;P1;durP2;ratioP2;P2;SDS_P1;SDS_P2;PMS_P1;PMS_P2;Temp;Humidity;BMP_temperature;BMP_pressure;BME280_temperature;BME280_humidity;BME280_pressure;Samples;Min_cycle;Max_cycle;Signal;HPM_P1;HPM_P2
2022/10/10 00:01:32;;;;;;;11.10;6.80;;;7.30;90.40;;;;;;4723061;30;20050;-68
2022/10/10 00:03:58;;;;;;;7.32;6.10;;;7.30;90.50;;;;;;4733060;30;20048;-68
2022/10/10 00:06:25;;;;;;;9.23;6.32;;;7.30;90.20;;;;;;4731672;30;20136;-68
2022/10/10 00:08:51;;;;;;;10.00;6.38;;;7.30;90.20;;;;;;4750664;30;20606;-69
2022/10/10 00:11:19;;;;;;;10.43;7.00;;;7.30;90.30;;;;;;4733174;30;20049;-68
2022/10/10 00:13:45;;;;;;;12.15;7.28;;;7.30;90.30;;;;;;4735518;30;20125;-68
2022/10/10 00:16:11;;;;;;;13.07;7.32;;;7.20;90.20;;;;;;4724246;30;20044;-68
2022/10/10 00:18:38;;;;;;;10.80;7.05;;;7.30;90.10;;;;;;4748072;30;20414;-68
2022/10/10 00:21:04;;;;;;;9.63;6.68;;;7.20;90.40;;;;;;4697533;30;20049;-68
2022/10/10 00:23:30;;;;;;;13.50;7.50;;;7.20;90.20;;;;;;4720537;30;20139;-68
2022/10/10 00:25:56;;;;;;;10.90;6.47;;;7.20;90.20;;;;;;4713213;30;20128;-68
2022/10/10 00:28:22;;;;;;;8.20;6.13;;;7.20;90.20;;;;;;4730112;30;20306;-68
2022/10/10 00:30:47;;;;;;;11.77;6.87;;;7.20;90.30;;;;;;4729948;30;20055;-68
2022/10/10 00:33:14;;;;;;;7.90;6.17;;;7.20;90.10;;;;;;4715547;30;20925;-68
2022/10/10 00:35:40;;;;;;;8.98;5.78;;;7.20;90.30;;;;;;4727479;30;20063;-68
2022/10/10 00:38:07;;;;;;;7.90;5.25;;;7.20;90.40;;;;;;4736773;30;20152;-68
2022/10/10 00:40:32;;;;;;;9.20;5.60;;;7.20;90.30;;;;;;4730428;30;20123;-68
2022/10/10 00:42:59;;;;;;;8.55;6.10;;;7.30;90.20;;;;;;4748569;30;20075;-68
2022/10/10 00:45:27;;;;;;;11.50;5.90;;;7.30;90.40;;;;;;4733638;30;20052;-68
2022/10/10 00:48:05;;;;;;;8.30;5.13;;;7.30;90.30;;;;;;4733718;30;20051;-68
2022/10/10 00:50:34;;;;;;;10.57;5.82;;;7.30;90.10;;;;;;4725181;30;20886;-69
2022/10/10 00:53:03;;;;;;;10.27;5.80;;;7.30;90.00;;;;;;4724934;30;20040;-68
2022/10/10 00:55:29;;;;;;;9.25;5.85;;;7.30;90.10;;;;;;4745870;30;20454;-68
2022/10/10 00:57:55;;;;;;;6.30;5.13;;;7.30;90.20;;;;;;4720843;30;20056;-68
2022/10/10 01:00:21;;;;;;;8.20;6.20;;;7.30;90.10;;;;;;4720232;30;20048;-68
2022/10/10 01:02:46;;;;;;;7.93;5.80;;;7.30;90.10;;;;;;4739111;30;20553;-68
2022/10/10 01:05:12;;;;;;;11.13;6.13;;;7.30;89.80;;;;;;4727460;30;20083;-68
2022/10/10 01:07:38;;;;;;;10.23;5.70;;;7.30;89.90;;;;;;4704465;30;20044;-68
2022/10/10 01:10:10;;;;;;;7.45;5.63;;;7.30;90.10;;;;;;4741992;30;20118;-69
2022/10/10 01:12:41;;;;;;;9.90;5.93;;;7.30;89.90;;;;;;4735250;30;20127;-68
2022/10/10 01:15:31;;;;;;;8.88;5.78;;;7.30;90.00;;;;;;4728986;30;20052;-68
2022/10/10 01:17:59;;;;;;;10.25;5.95;;;7.20;90.00;;;;;;4724072;30;20370;-68
2022/10/10 01:20:58;;;;;;;8.32;5.93;;;7.20;90.00;;;;;;4734505;30;20056;-68
2022/10/10 01:23:37;;;;;;;9.70;5.78;;;7.20;90.30;;;;;;4744413;30;20499;-68
2022/10/10 01:26:40;;;;;;;12.98;6.32;;;7.20;90.20;;;;;;4724071;30;20049;-68
2022/10/10 01:29:17;;;;;;;10.50;6.10;;;7.20;90.40;;;;;;4729535;30;20060;-68
2022/10/10 01:31:47;;;;;;;9.68;6.43;;;7.10;90.20;;;;;;4729030;30;20044;-68
2022/10/10 01:34:13;;;;;;;8.82;5.97;;;7.10;90.60;;;;;;4740872;30;20139;-68
2022/10/10 01:36:45;;;;;;;8.93;6.10;;;7.10;90.40;;;;;;4749462;30;20144;-68
2022/10/10 01:39:44;;;;;;;11.50;5.53;;;7.10;90.60;;;;;;4745162;30;20048;-68
2022/10/10 01:42:33;;;;;;;9.73;5.93;;;7.10;90.40;;;;;;4732994;30;20066;-68
2022/10/10 01:44:59;;;;;;;10.95;5.60;;;7.10;90.50;;;;;;4733705;30;20056;-68
2022/10/10 01:47:25;;;;;;;8.47;5.43;;;7.10;90.50;;;;;;4745924;30;20049;-68
2022/10/10 01:49:55;;;;;;;11.33;5.77;;;7.10;90.40;;;;;;4718883;30;20048;-68
2022/10/10 01:52:54;;;;;;;9.68;6.20;;;7.10;90.50;;;;;;4745677;30;20295;-68
2022/10/10 01:55:34;;;;;;;8.80;6.07;;;7.10;90.30;;;;;;4724698;30;20521;-68
2022/10/10 01:58:27;;;;;;;7.45;5.55;;;7.10;90.40;;;;;;4721358;30;20048;-68
2022/10/10 02:01:14;;;;;;;10.90;6.57;;;7.10;90.40;;;;;;4734022;30;20055;-68
2022/10/10 02:03:48;;;;;;;9.80;6.57;;;7.00;90.30;;;;;;4747704;30;20102;-68
2022/10/10 02:06:46;;;;;;;10.15;6.68;;;7.00;90.60;;;;;;4743825;30;20096;-68
2022/10/10 02:09:18;;;;;;;11.05;6.28;;;6.90;90.60;;;;;;4731356;30;20596;-68
2022/10/10 02:11:44;;;;;;;9.30;6.20;;;6.90;90.90;;;;;;4729892;30;20513;-68
2022/10/10 02:14:37;;;;;;;9.90;5.97;;;6.90;90.70;;;;;;4723454;30;20048;-68
2022/10/10 02:17:07;;;;;;;7.95;5.78;;;6.90;90.90;;;;;;4737854;30;20124;-69
2022/10/10 02:19:33;;;;;;;10.38;6.18;;;6.80;91.10;;;;;;4722941;30;20055;-69
2022/10/10 02:22:00;;;;;;;10.23;6.50;;;6.90;91.10;;;;;;4751875;30;20048;-69
2022/10/10 02:24:26;;;;;;;8.55;5.97;;;6.80;91.40;;;;;;4748492;30;20048;-69
2022/10/10 02:27:09;;;;;;;9.80;6.07;;;6.90;91.50;;;;;;4744254;30;20044;-69
2022/10/10 02:29:38;;;;;;;11.43;6.75;;;6.90;91.40;;;;;;4747675;30;20053;-69
2022/10/10 02:32:09;;;;;;;9.88;6.18;;;6.90;91.60;;;;;;4746052;30;20560;-67
2022/10/10 02:34:38;;;;;;;9.98;6.22;;;6.90;91.50;;;;;;4748733;30;20518;-67
2022/10/10 02:37:09;;;;;;;8.15;6.20;;;6.90;91.50;;;;;;4734865;30;20114;-67
2022/10/10 02:39:40;;;;;;;8.52;6.00;;;6.90;91.40;;;;;;4749979;30;20067;-67
2022/10/10 02:42:06;;;;;;;8.55;6.28;;;6.90;91.20;;;;;;4741449;30;20659;-67
2022/10/10 02:44:33;;;;;;;8.90;6.15;;;6.90;91.50;;;;;;4751368;30;20051;-67
2022/10/10 02:46:59;;;;;;;8.38;5.47;;;6.90;91.60;;;;;;4734636;30;20052;-68
2022/10/10 02:49:31;;;;;;;9.73;6.07;;;6.90;91.60;;;;;;4736913;30;20059;-67
2022/10/10 02:51:57;;;;;;;8.90;5.97;;;6.90;91.40;;;;;;4743341;30;20469;-67
2022/10/10 02:54:23;;;;;;;9.77;6.50;;;6.90;91.50;;;;;;4752522;30;20056;-67
2022/10/10 02:56:49;;;;;;;9.48;6.32;;;6.90;91.50;;;;;;4744356;30;20052;-67
2022/10/10 02:59:15;;;;;;;10.70;6.23;;;6.90;91.30;;;;;;4749715;30;20059;-67
2022/10/10 03:01:40;;;;;;;8.80;5.53;;;6.90;91.70;;;;;;4740458;30;20087;-67
2022/10/10 03:04:06;;;;;;;12.13;5.90;;;6.80;91.70;;;;;;4747504;30;20063;-67
2022/10/10 03:06:32;;;;;;;9.33;5.83;;;6.90;91.60;;;;;;4729156;30;20079;-67
2022/10/10 03:08:58;;;;;;;9.43;6.27;;;6.80;92.00;;;;;;4733394;30;20068;-67
2022/10/10 03:11:23;;;;;;;11.63;6.37;;;6.80;92.10;;;;;;4742373;30;20142;-67
2022/10/10 03:13:49;;;;;;;12.37;6.47;;;6.80;92.20;;;;;;4754330;30;20043;-67
2022/10/10 03:16:15;;;;;;;8.80;6.27;;;6.70;92.20;;;;;;4728234;30;20366;-67
2022/10/10 03:18:40;;;;;;;12.33;6.40;;;6.70;92.20;;;;;;4747657;30;20147;-67
2022/10/10 03:21:06;;;;;;;12.50;6.43;;;6.70;92.50;;;;;;4703426;30;20044;-67
2022/10/10 03:23:33;;;;;;;10.27;6.33;;;6.70;92.30;;;;;;4747623;30;20041;-67
2022/10/10 03:25:58;;;;;;;11.23;6.20;;;6.60;92.30;;;;;;4741391;30;20044;-68
2022/10/10 03:28:24;;;;;;;11.03;5.87;;;6.60;92.40;;;;;;4746485;30;20490;-67
2022/10/10 03:30:50;;;;;;;8.80;5.83;;;6.60;92.60;;;;;;4716398;30;20091;-68
2022/10/10 03:33:16;;;;;;;9.87;6.30;;;6.60;92.80;;;;;;4714478;30;20091;-67
2022/10/10 03:35:41;;;;;;;9.97;6.00;;;6.60;93.10;;;;;;4720286;30;20119;-67
2022/10/10 03:38:08;;;;;;;10.17;6.13;;;6.50;93.30;;;;;;4745009;30;20059;-67
2022/10/10 03:40:42;;;;;;;9.57;6.85;;;6.50;93.10;;;;;;4713449;30;20052;-67
2022/10/10 03:43:10;;;;;;;9.25;6.38;;;6.50;93.10;;;;;;4746749;30;20475;-67
2022/10/10 03:45:37;;;;;;;9.27;6.22;;;6.50;93.10;;;;;;4746896;30;20084;-68
2022/10/10 03:48:03;;;;;;;8.85;6.47;;;6.50;93.30;;;;;;4751233;30;20067;-67
2022/10/10 03:50:29;;;;;;;8.82;6.40;;;6.50;93.30;;;;;;4746401;30;20052;-67
2022/10/10 03:52:55;;;;;;;10.13;6.50;;;6.50;93.20;;;;;;4735918;30;20044;-67
2022/10/10 03:55:20;;;;;;;11.23;6.83;;;6.50;93.30;;;;;;4742389;30;20051;-67
2022/10/10 03:57:46;;;;;;;11.13;6.00;;;6.50;93.40;;;;;;4742452;30;20511;-67
2022/10/10 04:00:12;;;;;;;8.60;6.23;;;6.50;93.10;;;;;;4716387;30;20052;-67
2022/10/10 04:02:38;;;;;;;10.80;6.07;;;6.40;93.40;;;;;;4718060;30;20208;-67
2022/10/10 04:05:04;;;;;;;9.53;6.27;;;6.50;93.80;;;;;;4732502;30;20131;-67
2022/10/10 04:07:30;;;;;;;10.50;6.70;;;6.40;93.60;;;;;;4744928;30;20141;-68
2022/10/10 04:09:56;;;;;;;9.97;6.60;;;6.40;93.80;;;;;;4737165;30;20080;-67
2022/10/10 04:12:21;;;;;;;10.60;6.40;;;6.40;93.90;;;;;;4736970;30;20294;-67
2022/10/10 04:14:47;;;;;;;10.63;6.53;;;6.40;93.60;;;;;;4738203;30;20369;-67
2022/10/10 04:17:13;;;;;;;10.50;6.53;;;6.40;93.70;;;;;;4757726;30;20052;-68
2022/10/10 04:19:39;;;;;;;11.60;6.33;;;6.40;93.80;;;;;;4733042;30;20581;-67
2022/10/10 04:22:04;;;;;;;10.70;6.67;;;6.40;93.70;;;;;;4745978;30;20056;-69
2022/10/10 04:24:30;;;;;;;9.77;6.67;;;6.40;93.60;;;;;;4746269;30;20127;-68
2022/10/10 04:26:56;;;;;;;8.23;5.90;;;6.40;93.80;;;;;;4745093;30;20059;-68
2022/10/10 04:29:21;;;;;;;10.57;6.53;;;6.40;93.90;;;;;;4716508;30;20048;-68
2022/10/10 04:31:47;;;;;;;12.97;7.07;;;6.40;94.00;;;;;;4703742;30;20052;-68
2022/10/10 04:34:14;;;;;;;9.83;6.77;;;6.40;94.40;;;;;;4712683;30;20466;-68
2022/10/10 04:36:40;;;;;;;10.18;6.47;;;6.30;94.50;;;;;;4745210;30;20074;-68
2022/10/10 04:39:06;;;;;;;9.00;6.55;;;6.40;94.40;;;;;;4745867;30;20049;-68
2022/10/10 04:41:32;;;;;;;10.60;6.93;;;6.40;94.20;;;;;;4748728;30;20051;-68
2022/10/10 04:43:57;;;;;;;11.27;6.10;;;6.40;94.70;;;;;;4745554;30;20059;-68
2022/10/10 04:46:23;;;;;;;12.40;7.07;;;6.40;94.50;;;;;;4720231;30;20294;-68
2022/10/10 04:48:49;;;;;;;12.03;6.63;;;6.30;95.00;;;;;;4716834;30;20482;-68
2022/10/10 04:51:15;;;;;;;11.03;6.57;;;6.30;95.00;;;;;;4749589;30;20716;-68
2022/10/10 04:53:40;;;;;;;12.10;6.80;;;6.30;94.80;;;;;;4716437;30;20180;-68
2022/10/10 04:56:06;;;;;;;12.63;7.00;;;6.30;94.90;;;;;;4745829;30;20076;-68
2022/10/10 04:58:32;;;;;;;9.37;6.70;;;6.40;94.80;;;;;;4741454;30;20052;-68
2022/10/10 05:00:58;;;;;;;11.70;6.53;;;6.40;94.90;;;;;;4734427;30;20382;-68
2022/10/10 05:03:24;;;;;;;12.87;7.50;;;6.40;95.00;;;;;;4749697;30;20101;-68
2022/10/10 05:05:50;;;;;;;11.82;6.82;;;6.40;94.70;;;;;;4731185;30;20104;-68
2022/10/10 05:08:17;;;;;;;15.65;7.05;;;6.40;95.00;;;;;;4736915;30;20052;-68
2022/10/10 05:10:44;;;;;;;9.23;6.43;;;6.40;95.10;;;;;;4744657;30;20044;-68
2022/10/10 05:13:11;;;;;;;10.15;6.82;;;6.40;95.20;;;;;;4745765;30;20589;-68
2022/10/10 05:15:37;;;;;;;10.63;6.63;;;6.30;94.90;;;;;;4722893;30;20072;-68
2022/10/10 05:18:03;;;;;;;9.40;6.97;;;6.30;95.00;;;;;;4715857;30;20052;-68
2022/10/10 05:20:30;;;;;;;11.50;7.60;;;6.30;95.00;;;;;;4727081;30;20089;-68
2022/10/10 05:22:56;;;;;;;10.50;6.45;;;6.20;95.40;;;;;;4730487;30;20302;-68
2022/10/10 05:25:21;;;;;;;11.03;7.50;;;6.20;95.30;;;;;;4744989;30;20049;-68
2022/10/10 05:27:47;;;;;;;10.67;7.20;;;6.10;95.40;;;;;;4725613;30;20336;-68
2022/10/10 05:30:13;;;;;;;8.67;6.60;;;6.10;95.50;;;;;;4742094;30;20314;-68
2022/10/10 05:32:39;;;;;;;9.37;6.60;;;6.10;95.80;;;;;;4740391;30;20071;-68
2022/10/10 05:35:06;;;;;;;11.88;7.03;;;6.10;95.40;;;;;;4742374;30;20053;-68
2022/10/10 05:37:32;;;;;;;13.52;7.40;;;6.10;95.60;;;;;;4740242;30;20055;-68
2022/10/10 05:39:57;;;;;;;13.03;7.60;;;6.10;95.50;;;;;;4742945;30;20056;-68
2022/10/10 05:42:23;;;;;;;12.13;7.03;;;6.10;95.40;;;;;;4743390;30;20418;-68
2022/10/10 05:44:49;;;;;;;13.67;6.67;;;6.10;95.50;;;;;;4740828;30;20080;-68
2022/10/10 05:47:15;;;;;;;12.63;7.50;;;6.10;95.60;;;;;;4733089;30;20060;-68
2022/10/10 05:49:41;;;;;;;11.73;6.80;;;6.10;95.70;;;;;;4727723;30;20048;-68
2022/10/10 05:52:07;;;;;;;12.17;7.50;;;6.10;95.50;;;;;;4743939;30;20044;-68
2022/10/10 05:54:33;;;;;;;10.30;6.70;;;6.10;95.70;;;;;;4733051;30;20359;-68
2022/10/10 05:56:59;;;;;;;11.13;6.83;;;6.20;95.90;;;;;;4733707;30;20506;-69
2022/10/10 05:59:26;;;;;;;9.93;6.93;;;6.20;95.90;;;;;;4741366;30;20048;-68
2022/10/10 06:01:52;;;;;;;13.50;6.97;;;6.20;96.00;;;;;;4750371;30;20452;-68
2022/10/10 06:04:18;;;;;;;10.50;6.70;;;6.20;96.10;;;;;;4752532;30;20056;-68
2022/10/10 06:06:43;;;;;;;8.63;6.33;;;6.20;96.00;;;;;;4750125;30;20052;-68
2022/10/10 06:09:09;;;;;;;12.50;6.43;;;6.20;95.90;;;;;;4736322;30;20135;-68
2022/10/10 06:11:35;;;;;;;10.67;6.90;;;6.20;96.20;;;;;;4748557;30;20045;-68
2022/10/10 06:14:01;;;;;;;12.73;6.97;;;6.20;96.10;;;;;;4748878;30;20061;-68
2022/10/10 06:16:26;;;;;;;10.13;6.00;;;6.30;96.10;;;;;;4753249;30;20052;-68
2022/10/10 06:18:55;;;;;;;13.80;7.73;;;6.30;96.30;;;;;;4733141;30;20051;-68
2022/10/10 06:21:21;;;;;;;11.30;6.85;;;6.40;96.40;;;;;;4748596;30;20045;-68
2022/10/10 06:23:46;;;;;;;11.37;6.90;;;6.40;96.60;;;;;;4752753;30;20102;-68
2022/10/10 06:26:14;;;;;;;9.37;6.40;;;6.40;96.30;;;;;;4749264;30;20041;-68
2022/10/10 06:28:40;;;;;;;13.23;6.65;;;6.40;96.30;;;;;;4717507;30;20052;-68
2022/10/10 06:31:09;;;;;;;9.68;7.07;;;6.50;96.40;;;;;;4728431;30;20119;-68
2022/10/10 06:33:36;;;;;;;9.27;6.53;;;6.50;96.50;;;;;;4741950;30;20206;-68
2022/10/10 06:36:07;;;;;;;12.05;6.05;;;6.60;96.30;;;;;;4745569;30;20128;-68
2022/10/10 06:38:37;;;;;;;11.73;7.20;;;6.60;96.70;;;;;;4735471;30;20052;-69
2022/10/10 06:41:04;;;;;;;12.07;7.85;;;6.70;96.50;;;;;;4743706;30;20088;-68
2022/10/10 06:43:30;;;;;;;11.65;7.03;;;6.80;96.70;;;;;;4750407;30;20057;-68
2022/10/10 06:45:56;;;;;;;11.88;7.22;;;6.90;96.60;;;;;;4746405;30;20128;-68
2022/10/10 06:48:22;;;;;;;9.47;6.43;;;6.90;96.70;;;;;;4720903;30;20136;-69
2022/10/10 06:50:59;;;;;;;8.87;6.47;;;7.00;96.50;;;;;;4745838;30;20059;-70
2022/10/10 06:53:26;;;;;;;9.65;6.28;;;7.10;96.80;;;;;;4730167;30;20110;-70
2022/10/10 06:55:53;;;;;;;7.82;6.32;;;7.20;96.40;;;;;;4739298;30;20333;-70
2022/10/10 06:58:20;;;;;;;12.35;6.40;;;7.30;96.30;;;;;;4751016;30;20057;-70
2022/10/10 07:00:54;;;;;;;11.63;6.53;;;7.40;96.30;;;;;;4745433;30;20048;-70
2022/10/10 07:03:23;;;;;;;12.48;6.68;;;7.40;96.20;;;;;;4734627;30;20116;-70
2022/10/10 07:05:55;;;;;;;11.35;6.63;;;7.50;96.20;;;;;;4717223;30;20044;-70
2022/10/10 07:08:21;;;;;;;9.88;6.90;;;7.60;95.90;;;;;;4733200;30;20498;-70
2022/10/10 07:10:47;;;;;;;11.07;6.78;;;7.70;95.90;;;;;;4739710;30;20119;-70
2022/10/10 07:13:14;;;;;;;15.48;6.75;;;7.70;96.00;;;;;;4748555;30;20071;-70
2022/10/10 07:15:40;;;;;;;8.77;6.63;;;7.90;96.30;;;;;;4744360;30;20044;-70
2022/10/10 07:18:12;;;;;;;15.52;7.05;;;8.00;96.40;;;;;;4743851;30;20135;-71
2022/10/10 07:20:39;;;;;;;12.00;6.90;;;8.20;96.40;;;;;;4736745;30;20044;-70
2022/10/10 07:23:06;;;;;;;14.45;6.90;;;8.40;96.20;;;;;;4734509;30;20094;-70
2022/10/10 07:25:32;;;;;;;11.70;7.10;;;8.60;96.10;;;;;;4747041;30;20480;-70
2022/10/10 07:27:58;;;;;;;15.53;7.47;;;8.80;96.00;;;;;;4746525;30;20055;-70
2022/10/10 07:30:24;;;;;;;9.80;6.67;;;9.00;95.70;;;;;;4731582;30;20538;-70
2022/10/10 07:32:54;;;;;;;9.48;6.00;;;9.20;95.50;;;;;;4728202;30;20064;-71
2022/10/10 07:35:22;;;;;;;10.27;6.55;;;9.40;95.30;;;;;;4720728;30;20080;-72
2022/10/10 07:37:52;;;;;;;10.25;6.38;;;9.60;95.00;;;;;;4743329;30;20442;-71
2022/10/10 07:40:19;;;;;;;11.82;6.07;;;9.70;94.80;;;;;;4716036;30;20091;-69
2022/10/10 07:42:45;;;;;;;11.43;6.97;;;9.90;94.50;;;;;;4720009;30;20080;-70
2022/10/10 07:45:14;;;;;;;11.50;6.72;;;10.00;94.10;;;;;;4733912;30;20057;-71
2022/10/10 07:47:40;;;;;;;11.33;6.57;;;10.10;93.80;;;;;;4734024;30;20051;-71
2022/10/10 07:50:07;;;;;;;8.70;6.27;;;10.30;93.50;;;;;;4729548;30;20199;-70
2022/10/10 07:52:36;;;;;;;11.40;6.40;;;10.40;93.40;;;;;;4747748;30;20058;-70
2022/10/10 07:55:03;;;;;;;13.57;6.68;;;10.50;93.20;;;;;;4747973;30;20533;-70
2022/10/10 07:57:35;;;;;;;10.07;6.90;;;10.60;92.90;;;;;;4718272;30;20092;-70
2022/10/10 08:00:04;;;;;;;13.35;6.32;;;10.70;92.60;;;;;;4719361;30;20083;-70
2022/10/10 08:02:30;;;;;;;10.18;7.18;;;10.70;92.60;;;;;;4741378;30;20055;-70
2022/10/10 08:04:55;;;;;;;10.97;6.80;;;10.80;92.50;;;;;;4731174;30;20462;-70
2022/10/10 08:07:21;;;;;;;13.03;6.73;;;10.80;92.50;;;;;;4732878;30;20048;-69
2022/10/10 08:09:47;;;;;;;10.57;6.87;;;10.90;92.40;;;;;;4733407;30;20063;-69
2022/10/10 08:12:13;;;;;;;15.00;7.77;;;10.90;92.10;;;;;;4737365;30;20040;-69
2022/10/10 08:14:38;;;;;;;13.90;7.50;;;11.00;92.10;;;;;;4707209;30;20069;-69
2022/10/10 08:17:04;;;;;;;11.37;7.73;;;11.10;92.20;;;;;;4732795;30;20517;-69
2022/10/10 08:19:30;;;;;;;12.07;6.83;;;11.10;92.00;;;;;;4715548;30;20541;-69
2022/10/10 08:21:56;;;;;;;12.57;7.57;;;11.20;91.90;;;;;;4745614;30;20055;-69
2022/10/10 08:24:21;;;;;;;15.00;7.30;;;11.30;92.10;;;;;;4708797;30;20214;-69
2022/10/10 08:26:49;;;;;;;16.87;7.93;;;11.40;92.10;;;;;;4742004;30;20056;-69
2022/10/10 08:29:15;;;;;;;12.33;7.20;;;11.50;92.20;;;;;;4721689;30;20145;-69
2022/10/10 08:31:41;;;;;;;10.50;6.83;;;11.60;92.10;;;;;;4697213;30;20377;-69
2022/10/10 08:34:08;;;;;;;11.57;7.23;;;11.70;91.60;;;;;;4748625;30;20307;-69
2022/10/10 08:36:34;;;;;;;12.90;7.03;;;11.80;91.50;;;;;;4745955;30;20151;-69
2022/10/10 08:39:00;;;;;;;11.83;7.30;;;11.80;91.40;;;;;;4737561;30;20287;-69
2022/10/10 08:41:47;;;;;;;14.83;7.63;;;11.80;91.20;;;;;;4734256;30;20323;-69
2022/10/10 08:44:32;;;;;;;11.53;7.27;;;11.80;91.40;;;;;;4736336;30;20052;-69
2022/10/10 08:47:09;;;;;;;10.30;7.30;;;11.90;91.50;;;;;;4731893;30;20750;-69
2022/10/10 08:49:59;;;;;;;13.67;7.57;;;11.90;91.60;;;;;;4750708;30;20653;-69
2022/10/10 08:53:26;;;;;;;12.30;7.50;;;12.00;92.00;;;;;;4745509;30;20291;-69
2022/10/10 08:55:52;;;;;;;;;;;12.10;92.10;;;;;;4673674;30;20308;-69
2022/10/10 08:58:23;;;;;;;15.03;7.67;;;12.30;91.90;;;;;;4686617;30;20389;-69
2022/10/10 09:00:54;;;;;;;11.40;6.87;;;12.30;91.70;;;;;;4709439;30;20103;-69
2022/10/10 09:03:34;;;;;;;12.20;7.10;;;12.40;91.40;;;;;;4740298;30;20290;-69
2022/10/10 09:06:10;;;;;;;14.00;7.87;;;12.60;91.70;;;;;;4733099;30;20334;-69
2022/10/10 09:09:29;;;;;;;15.90;7.80;;;12.80;91.50;;;;;;4726464;30;20704;-69
2022/10/10 09:12:00;;;;;;;14.10;7.10;;;12.90;91.00;;;;;;4713224;30;20835;-69
2022/10/10 09:14:52;;;;;;;11.23;6.93;;;13.00;90.80;;;;;;4741772;30;20295;-69
2022/10/10 09:17:36;;;;;;;11.03;7.43;;;13.00;90.90;;;;;;4742416;30;20469;-69
2022/10/10 09:20:16;;;;;;;11.33;7.30;;;13.10;90.80;;;;;;4744563;30;20784;-69
2022/10/10 09:22:54;;;;;;;10.10;6.93;;;13.10;90.20;;;;;;4749623;30;20299;-69
2022/10/10 09:25:33;;;;;;;10.33;7.13;;;13.10;90.30;;;;;;4752307;30;20688;-69
2022/10/10 09:28:16;;;;;;;16.30;8.63;;;13.10;90.30;;;;;;4744870;30;20350;-69
2022/10/10 09:30:53;;;;;;;11.87;7.20;;;13.20;90.60;;;;;;4712432;30;20776;-69
2022/10/10 09:33:35;;;;;;;9.93;7.60;;;13.30;90.60;;;;;;4733573;30;20311;-69
2022/10/10 09:36:04;;;;;;;10.87;7.33;;;13.60;90.20;;;;;;4741060;30;20287;-69
2022/10/10 09:38:39;;;;;;;11.10;7.33;;;13.70;89.60;;;;;;4733195;30;20297;-69
2022/10/10 09:41:19;;;;;;;12.43;7.22;;;13.90;89.60;;;;;;4746137;30;20897;-69
2022/10/10 09:43:45;;;;;;;11.27;6.97;;;14.10;88.90;;;;;;4733622;30;20288;-69
2022/10/10 09:46:11;;;;;;;12.43;7.57;;;14.20;88.30;;;;;;4732661;30;20302;-69
2022/10/10 09:48:39;;;;;;;10.40;7.03;;;14.20;87.50;;;;;;4725565;30;20317;-69
2022/10/10 09:51:12;;;;;;;12.33;7.50;;;14.30;88.10;;;;;;4744654;30;20079;-69
2022/10/10 09:53:37;;;;;;;13.20;7.13;;;14.40;88.40;;;;;;4737405;30;20291;-69
2022/10/10 09:56:04;;;;;;;12.67;7.70;;;14.70;88.00;;;;;;4741037;30;20278;-69
2022/10/10 09:58:40;;;;;;;14.77;7.77;;;14.90;87.60;;;;;;4727513;30;20140;-70
2022/10/10 10:01:44;;;;;;;10.73;6.60;;;15.20;86.80;;;;;;4735931;30;20470;-71
2022/10/10 10:04:16;;;;;;;12.40;6.90;;;15.30;85.50;;;;;;4752002;30;20782;-71
2022/10/10 10:06:50;;;;;;;10.37;7.20;;;15.30;85.60;;;;;;4741719;30;20353;-71
2022/10/10 10:09:21;;;;;;;13.80;6.67;;;15.40;85.60;;;;;;4722247;30;20299;-71
2022/10/10 10:11:52;;;;;;;10.23;6.53;;;15.40;85.30;;;;;;4731007;30;20311;-71
2022/10/10 10:14:36;;;;;;;12.70;7.00;;;15.40;85.30;;;;;;4713335;30;20304;-72
2022/10/10 10:17:12;;;;;;;11.83;7.10;;;15.40;85.00;;;;;;4722514;30;20630;-70
2022/10/10 10:19:45;;;;;;;12.70;7.10;;;15.40;85.00;;;;;;4723835;30;20352;-71
2022/10/10 10:22:32;;;;;;;12.93;7.10;;;15.30;85.40;;;;;;4742306;30;20372;-71
2022/10/10 10:25:18;;;;;;;13.53;6.83;;;15.20;85.30;;;;;;4741921;30;20303;-71
2022/10/10 10:27:44;;;;;;;10.50;6.93;;;15.10;85.20;;;;;;4740949;30;20311;-71
2022/10/10 10:30:23;;;;;;;9.80;6.53;;;15.00;85.70;;;;;;4748164;30;20294;-71
2022/10/10 10:33:04;;;;;;;10.80;6.53;;;14.80;86.10;;;;;;4749502;30;20183;-71
2022/10/10 10:35:55;;;;;;;10.27;6.87;;;14.80;86.60;;;;;;4732199;30;20291;-70
2022/10/10 10:38:30;;;;;;;14.80;7.00;;;14.70;86.80;;;;;;4753623;30;20322;-71
2022/10/10 10:41:12;;;;;;;9.93;6.80;;;14.80;87.20;;;;;;4730654;30;20291;-70
2022/10/10 10:43:50;;;;;;;12.30;6.73;;;14.80;87.20;;;;;;4743981;30;20677;-71
2022/10/10 10:46:24;;;;;;;11.73;7.00;;;14.90;87.00;;;;;;4747966;30;20682;-70
2022/10/10 10:49:22;;;;;;;13.35;7.63;;;15.00;86.80;;;;;;4757836;30;20295;-71
2022/10/10 10:51:51;;;;;;;13.43;7.40;;;15.00;86.70;;;;;;4729534;30;20207;-71
2022/10/10 10:54:45;;;;;;;13.50;7.37;;;14.90;86.30;;;;;;4734132;30;20678;-70
2022/10/10 10:57:38;;;;;;;13.13;7.03;;;14.90;86.70;;;;;;4745291;30;20302;-71
2022/10/10 11:00:35;;;;;;;13.17;6.87;;;14.70;85.80;;;;;;4744073;30;20301;-71
2022/10/10 11:03:33;;;;;;;10.67;6.87;;;14.60;86.30;;;;;;4751642;30;20287;-71
2022/10/10 11:06:02;;;;;;;16.50;7.67;;;14.50;86.80;;;;;;4719039;30;20310;-71
2022/10/10 11:09:01;;;;;;;10.60;7.07;;;14.30;87.50;;;;;;4749930;30;20311;-70
2022/10/10 11:12:10;;;;;;;11.10;7.97;;;14.30;87.80;;;;;;4734408;30;20432;-71
2022/10/10 11:14:36;;;;;;;13.47;7.23;;;14.10;88.60;;;;;;4724055;30;20296;-71
2022/10/10 11:17:18;;;;;;;14.33;7.87;;;14.10;89.30;;;;;;4737017;30;20314;-71
2022/10/10 11:20:04;;;;;;;17.23;8.33;;;14.00;89.50;;;;;;4735788;30;20057;-72
2022/10/10 11:22:40;;;;;;;10.97;7.50;;;13.90;90.10;;;;;;4748284;30;20312;-72
2022/10/10 11:25:34;;;;;;;15.40;8.67;;;13.90;90.70;;;;;;4743621;30;20721;-71
2022/10/10 11:28:15;;;;;;;15.30;8.67;;;13.90;91.10;;;;;;4752666;30;20319;-70
2022/10/10 11:31:04;;;;;;;11.73;8.53;;;14.00;91.40;;;;;;4746711;30;20310;-72
2022/10/10 11:33:35;;;;;;;16.30;8.77;;;14.10;91.30;;;;;;4745330;30;20795;-71
2022/10/10 11:36:16;;;;;;;13.73;8.00;;;14.20;91.20;;;;;;4746854;30;20306;-71
2022/10/10 11:38:46;;;;;;;14.10;8.60;;;14.30;91.00;;;;;;4734028;30;20298;-71
2022/10/10 11:41:24;;;;;;;15.33;9.03;;;14.40;90.50;;;;;;4744220;30;20306;-70
2022/10/10 11:44:02;;;;;;;15.80;8.50;;;14.50;90.20;;;;;;4732891;30;20298;-71
2022/10/10 11:47:00;;;;;;;13.27;8.10;;;14.50;90.00;;;;;;4750547;30;20297;-71
2022/10/10 11:49:51;;;;;;;15.83;8.13;;;14.60;89.60;;;;;;4730755;30;20413;-71
2022/10/10 11:52:38;;;;;;;12.83;7.90;;;14.60;89.60;;;;;;4738071;30;20657;-71
2022/10/10 11:55:23;;;;;;;13.20;8.17;;;14.60;89.50;;;;;;4730781;30;20799;-71
2022/10/10 11:58:20;;;;;;;16.63;8.88;;;14.70;89.60;;;;;;4732493;30;20783;-71
2022/10/10 12:00:51;;;;;;;13.53;8.47;;;14.60;90.00;;;;;;4706231;30;20761;-72
2022/10/10 12:03:17;;;;;;;16.93;8.63;;;14.60;90.10;;;;;;4747960;30;20337;-73
2022/10/10 12:05:58;;;;;;;15.63;8.50;;;14.50;90.50;;;;;;4729482;30;20307;-70
2022/10/10 12:08:38;;;;;;;17.63;8.10;;;14.40;90.80;;;;;;4746047;30;20053;-70
2022/10/10 12:11:27;;;;;;;15.40;8.80;;;14.30;91.20;;;;;;4732994;30;20294;-71
2022/10/10 12:13:57;;;;;;;16.73;8.63;;;14.20;92.00;;;;;;4746754;30;20772;-72
2022/10/10 12:16:28;;;;;;;18.17;8.83;;;14.10;92.20;;;;;;4732164;30;20815;-71
2022/10/10 12:19:00;;;;;;;17.90;9.03;;;14.00;92.80;;;;;;4746668;30;20298;-71
2022/10/10 12:21:30;;;;;;;16.67;9.50;;;14.00;93.30;;;;;;4729788;30;20318;-71
2022/10/10 12:24:03;;;;;;;18.97;10.83;;;13.90;94.40;;;;;;4734847;30;20056;-71
2022/10/10 12:27:09;;;;;;;15.37;9.70;;;13.80;94.70;;;;;;4730550;30;20295;-71
2022/10/10 12:29:45;;;;;;;17.75;10.07;;;13.70;94.90;;;;;;4670955;30;20316;-71
2022/10/10 12:32:13;;;;;;;14.00;9.60;;;13.70;95.30;;;;;;4659825;30;20072;-72
2022/10/10 12:34:48;;;;;;;17.00;10.33;;;13.60;96.10;;;;;;4698156;30;20376;-70
2022/10/10 12:37:34;;;;;;;17.67;10.75;;;13.50;96.20;;;;;;4727091;30;20295;-69
2022/10/10 12:40:06;;;;;;;11.73;8.60;;;13.50;97.80;;;;;;4730103;30;20063;-69
2022/10/10 12:42:46;;;;;;;11.17;7.50;;;13.40;99.60;;;;;;4745364;30;20305;-70
2022/10/10 12:45:28;;;;;;;14.63;6.00;;;13.50;99.90;;;;;;4732876;30;20326;-70
2022/10/10 12:48:20;;;;;;;5.97;1.73;;;13.50;99.90;;;;;;4737242;30;20373;-71
2022/10/10 12:50:58;;;;;;;8.17;1.20;;;13.50;99.90;;;;;;4738409;30;20295;-71
2022/10/10 12:53:27;;;;;;;5.53;0.73;;;13.30;99.40;;;;;;4745807;30;20295;-71
2022/10/10 12:55:55;;;;;;;5.07;0.60;;;13.10;98.90;;;;;;4733120;30;20286;-71
2022/10/10 12:58:26;;;;;;;7.40;0.93;;;13.00;99.90;;;;;;4742357;30;20301;-71
2022/10/10 13:00:54;;;;;;;7.10;0.83;;;12.70;99.90;;;;;;4751864;30;20309;-71
2022/10/10 13:03:25;;;;;;;10.03;1.60;;;12.60;99.90;;;;;;4739301;30;20302;-71
2022/10/10 13:05:52;;;;;;;9.17;1.30;;;12.50;99.90;;;;;;4740553;30;20731;-71
2022/10/10 13:08:23;;;;;;;13.00;1.90;;;12.40;99.90;;;;;;4740261;30;20317;-71
2022/10/10 13:11:12;;;;;;;12.07;1.30;;;12.20;99.90;;;;;;4731432;30;20845;-71